Terminal Aerodrome Forecast
Issued by NWS Sioux Falls, SD

Home | Current Version | Previous Version | Graphics & Text | Print | Product List | Glossary On
Versions: 1 2 3 4 5 6 7 8 9 10 11 12 13 14 15 16 17 18 19 20 21 22 23 24 25 26 27 28 29
000
FTUS43 KFSD 012347
TAFSUX
TAF
KSUX 012347Z 0200/0224 34020KT 3SM -SN OVC025
     FM020200 33014KT P6SM SCT025
     FM020600 VRB04KT P6SM SKC
     FM021500 15007KT P6SM SCT150
     FM021900 18012KT P6SM BKN100=

USA.gov is the U.S. government's official web portal to all federal, state and local government web resources and services.